sensor_id;sensor_type;location;lat;lon;timestamp;pressure;altitude;pressure_sealevel;temperature;humidity
58947;BME280;44724;52.332;4.978;2022-11-20T00:01:46;101492.91;;;-3.07;100.00
58947;BME280;44724;52.332;4.978;2022-11-20T00:04:11;101491.50;;;-3.03;100.00
58947;BME280;44724;52.332;4.978;2022-11-20T00:06:37;101487.97;;;-3.03;100.00
58947;BME280;44724;52.332;4.978;2022-11-20T00:09:03;101484.78;;;-3.07;100.00
58947;BME280;44724;52.332;4.978;2022-11-20T00:11:30;101484.09;;;-3.09;100.00
58947;BME280;44724;52.332;4.978;2022-11-20T00:13:57;101486.81;;;-3.09;100.00
58947;BME280;44724;52.332;4.978;2022-11-20T00:16:25;101480.72;;;-3.11;100.00
58947;BME280;44724;52.332;4.978;2022-11-20T00:18:51;101489.50;;;-3.09;100.00
58947;BME280;44724;52.332;4.978;2022-11-20T00:21:22;101480.72;;;-3.11;100.00
58947;BME280;44724;52.332;4.978;2022-11-20T00:23:49;101481.78;;;-3.12;100.00
58947;BME280;44724;52.332;4.978;2022-11-20T00:26:17;101475.50;;;-3.13;100.00
58947;BME280;44724;52.332;4.978;2022-11-20T00:28:44;101478.78;;;-3.17;100.00
58947;BME280;44724;52.332;4.978;2022-11-20T00:31:13;101485.59;;;-3.21;100.00
58947;BME280;44724;52.332;4.978;2022-11-20T00:33:39;101482.59;;;-3.27;100.00
58947;BME280;44724;52.332;4.978;2022-11-20T00:36:08;101466.72;;;-3.30;100.00
58947;BME280;44724;52.332;4.978;2022-11-20T00:38:34;101464.72;;;-3.36;100.00
58947;BME280;44724;52.332;4.978;2022-11-20T00:41:02;101465.28;;;-3.40;100.00
58947;BME280;44724;52.332;4.978;2022-11-20T00:43:28;101463.97;;;-3.45;100.00
58947;BME280;44724;52.332;4.978;2022-11-20T00:46:17;101461.63;;;-3.48;100.00
58947;BME280;44724;52.332;4.978;2022-11-20T00:48:44;101468.22;;;-3.50;100.00
58947;BME280;44724;52.332;4.978;2022-11-20T00:51:12;101460.78;;;-3.48;100.00
58947;BME280;44724;52.332;4.978;2022-11-20T00:53:38;101457.69;;;-3.45;100.00
58947;BME280;44724;52.332;4.978;2022-11-20T00:56:06;101464.16;;;-3.46;100.00
58947;BME280;44724;52.332;4.978;2022-11-20T00:58:34;101460.09;;;-3.50;100.00
58947;BME280;44724;52.332;4.978;2022-11-20T01:01:03;101454.69;;;-3.50;100.00
58947;BME280;44724;52.332;4.978;2022-11-20T01:03:33;101451.34;;;-3.52;100.00
58947;BME280;44724;52.332;4.978;2022-11-20T01:06:01;101454.22;;;-3.54;100.00
58947;BME280;44724;52.332;4.978;2022-11-20T01:08:32;101457.22;;;-3.49;100.00
58947;BME280;44724;52.332;4.978;2022-11-20T01:11:02;101479.28;;;-3.37;100.00
58947;BME280;44724;52.332;4.978;2022-11-20T01:13:30;101500.00;;;-3.29;100.00
58947;BME280;44724;52.332;4.978;2022-11-20T01:16:28;101492.53;;;-3.27;100.00
58947;BME280;44724;52.332;4.978;2022-11-20T01:18:57;101483.78;;;-3.29;100.00
58947;BME280;44724;52.332;4.978;2022-11-20T01:21:31;101475.19;;;-3.33;100.00
58947;BME280;44724;52.332;4.978;2022-11-20T01:23:57;101466.41;;;-3.35;100.00
58947;BME280;44724;52.332;4.978;2022-11-20T01:26:25;101464.06;;;-3.38;100.00
58947;BME280;44724;52.332;4.978;2022-11-20T01:28:51;101456.34;;;-3.41;100.00
58947;BME280;44724;52.332;4.978;2022-11-20T01:31:29;101444.00;;;-3.44;100.00
58947;BME280;44724;52.332;4.978;2022-11-20T01:33:57;101454.34;;;-3.47;100.00
58947;BME280;44724;52.332;4.978;2022-11-20T01:36:26;101444.91;;;-3.51;100.00
58947;BME280;44724;52.332;4.978;2022-11-20T01:38:56;101442.56;;;-3.54;100.00
58947;BME280;44724;52.332;4.978;2022-11-20T01:41:23;101450.22;;;-3.58;100.00
58947;BME280;44724;52.332;4.978;2022-11-20T01:44:10;101444.13;;;-3.60;100.00
58947;BME280;44724;52.332;4.978;2022-11-20T01:46:38;101440.59;;;-3.60;100.00
58947;BME280;44724;52.332;4.978;2022-11-20T01:49:16;101441.63;;;-3.61;100.00
58947;BME280;44724;52.332;4.978;2022-11-20T01:51:58;101436.56;;;-3.65;100.00
58947;BME280;44724;52.332;4.978;2022-11-20T01:54:34;101429.19;;;-3.71;100.00
58947;BME280;44724;52.332;4.978;2022-11-20T01:57:00;101435.25;;;-3.69;100.00
58947;BME280;44724;52.332;4.978;2022-11-20T01:59:27;101430.84;;;-3.70;100.00
58947;BME280;44724;52.332;4.978;2022-11-20T02:01:54;101441.97;;;-3.65;100.00
58947;BME280;44724;52.332;4.978;2022-11-20T02:04:20;101446.97;;;-3.53;100.00
58947;BME280;44724;52.332;4.978;2022-11-20T02:07:00;101444.75;;;-3.50;100.00
58947;BME280;44724;52.332;4.978;2022-11-20T02:09:27;101440.50;;;-3.52;100.00
58947;BME280;44724;52.332;4.978;2022-11-20T02:11:53;101432.97;;;-3.57;100.00
58947;BME280;44724;52.332;4.978;2022-11-20T02:14:19;101428.75;;;-3.59;100.00
58947;BME280;44724;52.332;4.978;2022-11-20T02:16:46;101417.09;;;-3.60;100.00
58947;BME280;44724;52.332;4.978;2022-11-20T02:19:20;101424.56;;;-3.62;100.00
58947;BME280;44724;52.332;4.978;2022-11-20T02:22:10;101429.09;;;-3.63;100.00
58947;BME280;44724;52.332;4.978;2022-11-20T02:24:39;101424.56;;;-3.62;100.00
58947;BME280;44724;52.332;4.978;2022-11-20T02:27:08;101431.63;;;-3.61;100.00
58947;BME280;44724;52.332;4.978;2022-11-20T02:29:46;101426.41;;;-3.63;100.00
58947;BME280;44724;52.332;4.978;2022-11-20T02:32:23;101416.78;;;-3.65;100.00
58947;BME280;44724;52.332;4.978;2022-11-20T02:34:48;101413.63;;;-3.69;100.00
58947;BME280;44724;52.332;4.978;2022-11-20T02:37:14;101408.38;;;-3.70;100.00
58947;BME280;44724;52.332;4.978;2022-11-20T02:39:41;101413.13;;;-3.72;100.00
58947;BME280;44724;52.332;4.978;2022-11-20T02:42:13;101407.06;;;-3.74;100.00
58947;BME280;44724;52.332;4.978;2022-11-20T02:44:38;101409.78;;;-3.74;100.00
58947;BME280;44724;52.332;4.978;2022-11-20T02:47:04;101402.84;;;-3.77;100.00
58947;BME280;44724;52.332;4.978;2022-11-20T02:49:29;101401.84;;;-3.76;100.00
58947;BME280;44724;52.332;4.978;2022-11-20T02:51:54;101396.44;;;-3.76;100.00
58947;BME280;44724;52.332;4.978;2022-11-20T02:54:20;101397.16;;;-3.82;100.00
58947;BME280;44724;52.332;4.978;2022-11-20T02:56:45;101388.38;;;-3.84;100.00
58947;BME280;44724;52.332;4.978;2022-11-20T02:59:11;101387.72;;;-3.86;100.00
58947;BME280;44724;52.332;4.978;2022-11-20T03:01:36;101387.06;;;-3.88;100.00
58947;BME280;44724;52.332;4.978;2022-11-20T03:04:02;101400.75;;;-3.90;100.00
58947;BME280;44724;52.332;4.978;2022-11-20T03:06:27;101394.53;;;-3.90;100.00
58947;BME280;44724;52.332;4.978;2022-11-20T03:08:53;101386.78;;;-3.93;100.00
58947;BME280;44724;52.332;4.978;2022-11-20T03:11:19;101385.47;;;-3.97;100.00
58947;BME280;44724;52.332;4.978;2022-11-20T03:13:45;101377.69;;;-4.01;100.00
58947;BME280;44724;52.332;4.978;2022-11-20T03:16:13;101375.34;;;-4.04;100.00
58947;BME280;44724;52.332;4.978;2022-11-20T03:18:40;101371.16;;;-4.06;100.00
58947;BME280;44724;52.332;4.978;2022-11-20T03:21:06;101372.34;;;-4.09;100.00
58947;BME280;44724;52.332;4.978;2022-11-20T03:23:32;101366.28;;;-4.11;100.00
58947;BME280;44724;52.332;4.978;2022-11-20T03:26:18;101372.72;;;-4.12;100.00
58947;BME280;44724;52.332;4.978;2022-11-20T03:28:54;101367.31;;;-4.12;100.00
58947;BME280;44724;52.332;4.978;2022-11-20T03:31:28;101373.22;;;-4.08;100.00
58947;BME280;44724;52.332;4.978;2022-11-20T03:33:55;101374.34;;;-4.03;100.00
58947;BME280;44724;52.332;4.978;2022-11-20T03:36:21;101367.91;;;-4.02;100.00
58947;BME280;44724;52.332;4.978;2022-11-20T03:38:47;101370.59;;;-4.02;100.00
58947;BME280;44724;52.332;4.978;2022-11-20T03:41:19;101368.09;;;-4.03;100.00
58947;BME280;44724;52.332;4.978;2022-11-20T03:43:52;101359.78;;;-4.02;100.00
58947;BME280;44724;52.332;4.978;2022-11-20T03:46:19;101365.88;;;-3.99;100.00
58947;BME280;44724;52.332;4.978;2022-11-20T03:48:44;101369.91;;;-3.95;100.00
58947;BME280;44724;52.332;4.978;2022-11-20T03:51:30;101370.38;;;-3.92;100.00
58947;BME280;44724;52.332;4.978;2022-11-20T03:53:58;101369.53;;;-3.92;100.00
58947;BME280;44724;52.332;4.978;2022-11-20T03:56:29;101353.69;;;-3.95;100.00
58947;BME280;44724;52.332;4.978;2022-11-20T03:58:56;101351.31;;;-3.98;100.00
58947;BME280;44724;52.332;4.978;2022-11-20T04:01:25;101343.78;;;-4.03;100.00
58947;BME280;44724;52.332;4.978;2022-11-20T04:03:55;101344.78;;;-4.04;100.00
58947;BME280;44724;52.332;4.978;2022-11-20T04:06:29;101339.75;;;-4.07;100.00
58947;BME280;44724;52.332;4.978;2022-11-20T04:08:57;101330.31;;;-4.11;100.00
58947;BME280;44724;52.332;4.978;2022-11-20T04:11:25;101319.88;;;-4.14;100.00
58947;BME280;44724;52.332;4.978;2022-11-20T04:13:54;101319.38;;;-4.18;100.00
58947;BME280;44724;52.332;4.978;2022-11-20T04:16:21;101316.38;;;-4.23;100.00
58947;BME280;44724;52.332;4.978;2022-11-20T04:18:46;101317.78;;;-4.27;100.00
58947;BME280;44724;52.332;4.978;2022-11-20T04:21:12;101311.72;;;-4.29;100.00
58947;BME280;44724;52.332;4.978;2022-11-20T04:23:38;101309.38;;;-4.32;100.00
58947;BME280;44724;52.332;4.978;2022-11-20T04:26:08;101305.19;;;-4.35;100.00
58947;BME280;44724;52.332;4.978;2022-11-20T04:28:34;101314.13;;;-4.34;100.00
58947;BME280;44724;52.332;4.978;2022-11-20T04:31:05;101312.41;;;-4.35;100.00
58947;BME280;44724;52.332;4.978;2022-11-20T04:33:32;101316.81;;;-4.34;100.00
58947;BME280;44724;52.332;4.978;2022-11-20T04:36:18;101321.00;;;-4.32;100.00
58947;BME280;44724;52.332;4.978;2022-11-20T04:38:44;101326.22;;;-4.30;100.00
58947;BME280;44724;52.332;4.978;2022-11-20T04:41:20;101320.19;;;-4.32;100.00
58947;BME280;44724;52.332;4.978;2022-11-20T04:43:51;101319.34;;;-4.33;100.00
58947;BME280;44724;52.332;4.978;2022-11-20T04:46:18;101312.41;;;-4.35;100.00
58947;BME280;44724;52.332;4.978;2022-11-20T04:48:44;101314.28;;;-4.36;100.00
58947;BME280;44724;52.332;4.978;2022-11-20T04:51:09;101324.25;;;-4.36;100.00
58947;BME280;44724;52.332;4.978;2022-11-20T04:53:35;101317.53;;;-4.41;100.00
58947;BME280;44724;52.332;4.978;2022-11-20T04:56:01;101306.72;;;-4.41;100.00
58947;BME280;44724;52.332;4.978;2022-11-20T04:58:27;101306.91;;;-4.42;100.00
58947;BME280;44724;52.332;4.978;2022-11-20T05:00:53;101292.56;;;-4.43;100.00
58947;BME280;44724;52.332;4.978;2022-11-20T05:03:18;101297.13;;;-4.43;100.00
58947;BME280;44724;52.332;4.978;2022-11-20T05:05:43;101287.16;;;-4.43;100.00
58947;BME280;44724;52.332;4.978;2022-11-20T05:08:09;101285.09;;;-4.41;100.00
58947;BME280;44724;52.332;4.978;2022-11-20T05:10:34;101292.38;;;-4.41;100.00
58947;BME280;44724;52.332;4.978;2022-11-20T05:12:59;101286.16;;;-4.42;100.00
58947;BME280;44724;52.332;4.978;2022-11-20T05:15:25;101281.75;;;-4.43;100.00
58947;BME280;44724;52.332;4.978;2022-11-20T05:17:51;101270.94;;;-4.43;100.00
58947;BME280;44724;52.332;4.978;2022-11-20T05:20:17;101272.00;;;-4.44;100.00
58947;BME280;44724;52.332;4.978;2022-11-20T05:22:44;101275.69;;;-4.45;100.00
58947;BME280;44724;52.332;4.978;2022-11-20T05:25:10;101278.41;;;-4.45;100.00
58947;BME280;44724;52.332;4.978;2022-11-20T05:27:35;101280.09;;;-4.44;100.00
58947;BME280;44724;52.332;4.978;2022-11-20T05:30:01;101282.41;;;-4.41;100.00
58947;BME280;44724;52.332;4.978;2022-11-20T05:32:27;101278.53;;;-4.38;100.00
58947;BME280;44724;52.332;4.978;2022-11-20T05:34:52;101281.03;;;-4.36;100.00
58947;BME280;44724;52.332;4.978;2022-11-20T05:37:18;101282.72;;;-4.35;100.00
58947;BME280;44724;52.332;4.978;2022-11-20T05:39:43;101290.81;;;-4.35;100.00
58947;BME280;44724;52.332;4.978;2022-11-20T05:42:09;101291.69;;;-4.35;100.00
58947;BME280;44724;52.332;4.978;2022-11-20T05:44:53;101289.81;;;-4.34;100.00
58947;BME280;44724;52.332;4.978;2022-11-20T05:47:18;101296.22;;;-4.35;100.00
58947;BME280;44724;52.332;4.978;2022-11-20T05:49:43;101281.22;;;-4.38;100.00
58947;BME280;44724;52.332;4.978;2022-11-20T05:52:09;101302.19;;;-4.40;100.00
58947;BME280;44724;52.332;4.978;2022-11-20T05:54:34;101295.09;;;-4.41;100.00
58947;BME280;44724;52.332;4.978;2022-11-20T05:57:00;101301.31;;;-4.41;100.00
58947;BME280;44724;52.332;4.978;2022-11-20T05:59:25;101297.97;;;-4.43;100.00
58947;BME280;44724;52.332;4.978;2022-11-20T06:01:50;101297.31;;;-4.45;100.00
58947;BME280;44724;52.332;4.978;2022-11-20T06:04:16;101293.59;;;-4.44;100.00
58947;BME280;44724;52.332;4.978;2022-11-20T06:06:41;101290.03;;;-4.44;100.00
58947;BME280;44724;52.332;4.978;2022-11-20T06:09:09;101298.34;;;-4.46;100.00
58947;BME280;44724;52.332;4.978;2022-11-20T06:11:35;101289.19;;;-4.45;100.00
58947;BME280;44724;52.332;4.978;2022-11-20T06:14:00;101297.31;;;-4.45;100.00
58947;BME280;44724;52.332;4.978;2022-11-20T06:16:25;101292.56;;;-4.43;100.00
58947;BME280;44724;52.332;4.978;2022-11-20T06:18:54;101285.50;;;-4.44;100.00
58947;BME280;44724;52.332;4.978;2022-11-20T06:21:20;101294.91;;;-4.40;100.00
58947;BME280;44724;52.332;4.978;2022-11-20T06:23:47;101290.50;;;-4.41;100.00
58947;BME280;44724;52.332;4.978;2022-11-20T06:26:18;101290.81;;;-4.35;100.00
58947;BME280;44724;52.332;4.978;2022-11-20T06:28:44;101300.91;;;-4.29;100.00
58947;BME280;44724;52.332;4.978;2022-11-20T06:31:12;101297.00;;;-4.27;100.00
58947;BME280;44724;52.332;4.978;2022-11-20T06:33:39;101296.81;;;-4.25;100.00
58947;BME280;44724;52.332;4.978;2022-11-20T06:36:04;101296.28;;;-4.21;100.00
58947;BME280;44724;52.332;4.978;2022-11-20T06:38:30;101284.56;;;-4.13;100.00
58947;BME280;44724;52.332;4.978;2022-11-20T06:40:56;101291.28;;;-4.09;100.00
58947;BME280;44724;52.332;4.978;2022-11-20T06:43:22;101288.22;;;-4.06;100.00
58947;BME280;44724;52.332;4.978;2022-11-20T06:45:52;101292.97;;;-4.08;100.00
58947;BME280;44724;52.332;4.978;2022-11-20T06:48:18;101278.63;;;-4.08;100.00
58947;BME280;44724;52.332;4.978;2022-11-20T06:50:43;101276.75;;;-4.08;100.00
58947;BME280;44724;52.332;4.978;2022-11-20T06:53:08;101275.75;;;-4.07;100.00
58947;BME280;44724;52.332;4.978;2022-11-20T06:55:34;101272.19;;;-4.07;100.00
58947;BME280;44724;52.332;4.978;2022-11-20T06:57:59;101268.28;;;-4.05;100.00
58947;BME280;44724;52.332;4.978;2022-11-20T07:00:25;101268.28;;;-4.05;100.00
58947;BME280;44724;52.332;4.978;2022-11-20T07:02:50;101264.38;;;-4.02;100.00
58947;BME280;44724;52.332;4.978;2022-11-20T07:05:16;101267.53;;;-3.98;100.00
58947;BME280;44724;52.332;4.978;2022-11-20T07:07:41;101263.66;;;-3.96;100.00
58947;BME280;44724;52.332;4.978;2022-11-20T07:10:07;101255.63;;;-3.89;100.00
58947;BME280;44724;52.332;4.978;2022-11-20T07:12:33;101265.16;;;-3.78;100.00
58947;BME280;44724;52.332;4.978;2022-11-20T07:14:58;101267.59;;;-3.69;100.00
58947;BME280;44724;52.332;4.978;2022-11-20T07:17:24;101269.00;;;-3.58;100.00
58947;BME280;44724;52.332;4.978;2022-11-20T07:19:49;101275.34;;;-3.51;100.00
58947;BME280;44724;52.332;4.978;2022-11-20T07:22:14;101277.09;;;-3.43;100.00
58947;BME280;44724;52.332;4.978;2022-11-20T07:24:40;101284.97;;;-3.33;100.00
58947;BME280;44724;52.332;4.978;2022-11-20T07:27:05;101282.53;;;-3.28;100.00
58947;BME280;44724;52.332;4.978;2022-11-20T07:29:31;101285.34;;;-3.21;100.00
58947;BME280;44724;52.332;4.978;2022-11-20T07:31:59;101276.44;;;-3.15;100.00
58947;BME280;44724;52.332;4.978;2022-11-20T07:34:24;101281.97;;;-3.09;100.00
58947;BME280;44724;52.332;4.978;2022-11-20T07:36:49;101278.09;;;-2.99;100.00
58947;BME280;44724;52.332;4.978;2022-11-20T07:39:15;101281.56;;;-2.91;100.00
58947;BME280;44724;52.332;4.978;2022-11-20T07:41:40;101282.84;;;-2.87;100.00
58947;BME280;44724;52.332;4.978;2022-11-20T07:44:06;101282.94;;;-2.80;100.00
58947;BME280;44724;52.332;4.978;2022-11-20T07:46:31;101275.53;;;-2.71;100.00
58947;BME280;44724;52.332;4.978;2022-11-20T07:48:57;101272.72;;;-2.63;100.00
58947;BME280;44724;52.332;4.978;2022-11-20T07:51:22;101272.31;;;-2.60;100.00
58947;BME280;44724;52.332;4.978;2022-11-20T07:53:52;101266.50;;;-2.57;100.00
58947;BME280;44724;52.332;4.978;2022-11-20T07:56:18;101267.78;;;-2.53;100.00
58947;BME280;44724;52.332;4.978;2022-11-20T07:58:43;101268.69;;;-2.45;100.00
58947;BME280;44724;52.332;4.978;2022-11-20T08:01:09;101257.47;;;-2.42;100.00
58947;BME280;44724;52.332;4.978;2022-11-20T08:03:34;101241.69;;;-2.39;100.00
58947;BME280;44724;52.332;4.978;2022-11-20T08:06:03;101244.66;;;-2.34;100.00
58947;BME280;44724;52.332;4.978;2022-11-20T08:08:28;101248.00;;;-2.32;100.00
58947;BME280;44724;52.332;4.978;2022-11-20T08:10:54;101251.78;;;-2.26;100.00
58947;BME280;44724;52.332;4.978;2022-11-20T08:13:39;101238.88;;;-2.24;100.00
58947;BME280;44724;52.332;4.978;2022-11-20T08:16:23;101239.13;;;-2.19;100.00
58947;BME280;44724;52.332;4.978;2022-11-20T08:18:48;101234.16;;;-2.15;100.00
58947;BME280;44724;52.332;4.978;2022-11-20T08:21:14;101235.91;;;-2.07;100.00
58947;BME280;44724;52.332;4.978;2022-11-20T08:23:40;101238.88;;;-2.02;100.00
58947;BME280;44724;52.332;4.978;2022-11-20T08:26:05;101232.84;;;-1.98;100.00
58947;BME280;44724;52.332;4.978;2022-11-20T08:28:30;101229.53;;;-1.93;100.00
58947;BME280;44724;52.332;4.978;2022-11-20T08:31:00;101234.38;;;-1.88;100.00
58947;BME280;44724;52.332;4.978;2022-11-20T08:33:26;101235.22;;;-1.88;100.00
58947;BME280;44724;52.332;4.978;2022-11-20T08:35:51;101233.78;;;-1.84;100.00
58947;BME280;44724;52.332;4.978;2022-11-20T08:38:16;101233.41;;;-1.81;100.00
58947;BME280;44724;52.332;4.978;2022-11-20T08:40:42;101239.09;;;-1.69;100.00
58947;BME280;44724;52.332;4.978;2022-11-20T08:43:27;101230.16;;;-1.63;100.00
58947;BME280;44724;52.332;4.978;2022-11-20T08:45:52;101232.25;;;-1.65;100.00
58947;BME280;44724;52.332;4.978;2022-11-20T08:48:18;101232.25;;;-1.58;100.00
58947;BME280;44724;52.332;4.978;2022-11-20T08:50:43;101239.63;;;-1.52;100.00
58947;BME280;44724;52.332;4.978;2022-11-20T08:53:08;101247.75;;;-1.52;100.00
58947;BME280;44724;52.332;4.978;2022-11-20T08:55:34;101239.03;;;-1.41;100.00
58947;BME280;44724;52.332;4.978;2022-11-20T08:58:08;101236.56;;;-1.36;100.00
58947;BME280;44724;52.332;4.978;2022-11-20T09:00:34;101231.78;;;-1.34;100.00
58947;BME280;44724;52.332;4.978;2022-11-20T09:03:00;101225.56;;;-1.27;100.00
58947;BME280;44724;52.332;4.978;2022-11-20T09:05:29;101221.63;;;-1.18;100.00
58947;BME280;44724;52.332;4.978;2022-11-20T09:07:58;101222.06;;;-1.15;100.00
58947;BME280;44724;52.332;4.978;2022-11-20T09:10:24;101222.28;;;-1.09;100.00
58947;BME280;44724;52.332;4.978;2022-11-20T09:12:50;101217.91;;;-1.04;100.00
58947;BME280;44724;52.332;4.978;2022-11-20T09:15:17;101207.44;;;-1.07;100.00
58947;BME280;44724;52.332;4.978;2022-11-20T09:17:50;101209.16;;;-0.99;100.00
58947;BME280;44724;52.332;4.978;2022-11-20T09:20:16;101204.16;;;-0.96;100.00
58947;BME280;44724;52.332;4.978;2022-11-20T09:22:41;101195.38;;;-0.91;100.00
58947;BME280;44724;52.332;4.978;2022-11-20T09:25:07;101191.66;;;-0.83;100.00
58947;BME280;44724;52.332;4.978;2022-11-20T09:27:32;101202.13;;;-0.67;100.00
58947;BME280;44724;52.332;4.978;2022-11-20T09:29:57;101193.56;;;-0.64;100.00
58947;BME280;44724;52.332;4.978;2022-11-20T09:32:23;101184.16;;;-0.61;100.00
58947;BME280;44724;52.332;4.978;2022-11-20T09:34:48;101178.34;;;-0.51;100.00
58947;BME280;44724;52.332;4.978;2022-11-20T09:37:13;101172.88;;;-0.45;100.00
58947;BME280;44724;52.332;4.978;2022-11-20T09:39:39;101172.47;;;-0.35;100.00
58947;BME280;44724;52.332;4.978;2022-11-20T09:44:50;101158.22;;;-0.30;100.00
58947;BME280;44724;52.332;4.978;2022-11-20T09:47:31;101157.41;;;-0.24;100.00
58947;BME280;44724;52.332;4.978;2022-11-20T09:50:36;101165.38;;;-0.23;100.00
58947;BME280;44724;52.332;4.978;2022-11-20T09:53:21;101152.81;;;-0.17;100.00
58947;BME280;44724;52.332;4.978;2022-11-20T09:55:52;101150.91;;;-0.16;100.00
58947;BME280;44724;52.332;4.978;2022-11-20T09:58:28;101148.63;;;-0.20;100.00
58947;BME280;44724;52.332;4.978;2022-11-20T10:01:05;101145.63;;;0.09;100.00
58947;BME280;44724;52.332;4.978;2022-11-20T10:04:09;101149.56;;;0.19;100.00
58947;BME280;44724;52.332;4.978;2022-11-20T10:06:53;101148.53;;;0.27;100.00
58947;BME280;44724;52.332;4.978;2022-11-20T10:09:48;101141.00;;;0.23;100.00
58947;BME280;44724;52.332;4.978;2022-11-20T10:14:57;101133.22;;;0.33;100.00
58947;BME280;44724;52.332;4.978;2022-11-20T10:29:36;101098.22;;;0.50;100.00
58947;BME280;44724;52.332;4.978;2022-11-20T10:32:09;101083.50;;;0.57;100.00
58947;BME280;44724;52.332;4.978;2022-11-20T10:35:02;101085.13;;;0.65;100.00
58947;BME280;44724;52.332;4.978;2022-11-20T10:37:30;101082.38;;;0.72;100.00
58947;BME280;44724;52.332;4.978;2022-11-20T10:40:17;101081.66;;;0.83;100.00
58947;BME280;44724;52.332;4.978;2022-11-20T10:42:46;101070.44;;;0.73;100.00
58947;BME280;44724;52.332;4.978;2022-11-20T10:45:49;101068.22;;;0.88;100.00
58947;BME280;44724;52.332;4.978;2022-11-20T10:48:23;101061.94;;;0.88;100.00
58947;BME280;44724;52.332;4.978;2022-11-20T10:50:57;101066.28;;;0.95;100.00
58947;BME280;44724;52.332;4.978;2022-11-20T10:56:45;101037.63;;;0.93;100.00
58947;BME280;44724;52.332;4.978;2022-11-20T11:02:01;101035.88;;;0.99;100.00
58947;BME280;44724;52.332;4.978;2022-11-20T11:04:36;101038.41;;;1.00;100.00
58947;BME280;44724;52.332;4.978;2022-11-20T11:07:10;101035.16;;;1.10;100.00
58947;BME280;44724;52.332;4.978;2022-11-20T11:09:48;101029.28;;;1.13;100.00
58947;BME280;44724;52.332;4.978;2022-11-20T11:12:14;101029.44;;;1.18;100.00
58947;BME280;44724;52.332;4.978;2022-11-20T11:14:53;101026.31;;;1.14;100.00
58947;BME280;44724;52.332;4.978;2022-11-20T11:17:30;101016.56;;;1.07;100.00
58947;BME280;44724;52.332;4.978;2022-11-20T11:20:00;101011.94;;;1.07;100.00
58947;BME280;44724;52.332;4.978;2022-11-20T11:22:29;101009.59;;;1.11;100.00
58947;BME280;44724;52.332;4.978;2022-11-20T11:24:55;101005.97;;;1.17;100.00
58947;BME280;44724;52.332;4.978;2022-11-20T11:27:20;101010.31;;;1.25;100.00
58947;BME280;44724;52.332;4.978;2022-11-20T11:29:46;101005.69;;;1.25;100.00
58947;BME280;44724;52.332;4.978;2022-11-20T11:32:14;101009.47;;;1.24;100.00
58947;BME280;44724;52.332;4.978;2022-11-20T11:34:40;100997.91;;;1.29;100.00
58947;BME280;44724;52.332;4.978;2022-11-20T11:37:13;100986.88;;;1.42;100.00
58947;BME280;44724;52.332;4.978;2022-11-20T11:39:42;100982.25;;;1.43;100.00
58947;BME280;44724;52.332;4.978;2022-11-20T11:42:11;100974.50;;;1.40;100.00
58947;BME280;44724;52.332;4.978;2022-11-20T11:44:44;100972.16;;;1.43;100.00
58947;BME280;44724;52.332;4.978;2022-11-20T11:47:45;100958.31;;;1.45;100.00
58947;BME280;44724;52.332;4.978;2022-11-20T11:55:32;100958.75;;;1.42;100.00
58947;BME280;44724;52.332;4.978;2022-11-20T11:58:13;100954.97;;;1.43;100.00
58947;BME280;44724;52.332;4.978;2022-11-20T12:00:41;100952.47;;;1.41;100.00
58947;BME280;44724;52.332;4.978;2022-11-20T12:03:16;100960.06;;;1.39;100.00
58947;BME280;44724;52.332;4.978;2022-11-20T12:05:49;100965.06;;;1.42;100.00
58947;BME280;44724;52.332;4.978;2022-11-20T12:08:47;100964.13;;;1.30;100.00
58947;BME280;44724;52.332;4.978;2022-11-20T12:11:20;100953.16;;;1.37;100.00
58947;BME280;44724;52.332;4.978;2022-11-20T12:16:35;100949.75;;;1.41;100.00
58947;BME280;44724;52.332;4.978;2022-11-20T12:19:01;100942.19;;;1.43;100.00
58947;BME280;44724;52.332;4.978;2022-11-20T12:24:32;100931.19;;;1.50;100.00
58947;BME280;44724;52.332;4.978;2022-11-20T12:30:10;100912.13;;;1.50;100.00
58947;BME280;44724;52.332;4.978;2022-11-20T12:35:41;100901.78;;;1.70;100.00
58947;BME280;44724;52.332;4.978;2022-11-20T12:43:27;100898.31;;;1.82;100.00
58947;BME280;44724;52.332;4.978;2022-11-20T12:46:37;100895.44;;;1.77;100.00
58947;BME280;44724;52.332;4.978;2022-11-20T12:49:34;100886.19;;;1.78;100.00
58947;BME280;44724;52.332;4.978;2022-11-20T13:02:33;100838.81;;;1.72;100.00
58947;BME280;44724;52.332;4.978;2022-11-20T13:05:08;100822.56;;;1.65;100.00
58947;BME280;44724;52.332;4.978;2022-11-20T13:07:39;100821.28;;;1.68;100.00
58947;BME280;44724;52.332;4.978;2022-11-20T13:12:57;100857.03;;;1.60;100.00
58947;BME280;44724;52.332;4.978;2022-11-20T13:15:33;100867.13;;;1.59;100.00
58947;BME280;44724;52.332;4.978;2022-11-20T13:18:04;100861.06;;;1.57;100.00
58947;BME280;44724;52.332;4.978;2022-11-20T13:20:33;100855.53;;;1.64;100.00
58947;BME280;44724;52.332;4.978;2022-11-20T13:22:59;100866.22;;;1.65;100.00
58947;BME280;44724;52.332;4.978;2022-11-20T13:25:30;100862.84;;;1.63;100.00
58947;BME280;44724;52.332;4.978;2022-11-20T13:28:42;100845.66;;;1.63;100.00
58947;BME280;44724;52.332;4.978;2022-11-20T13:30:50;100842.13;;;1.62;100.00
58947;BME280;44724;52.332;4.978;2022-11-20T13:33:27;100838.78;;;1.60;100.00
58947;BME280;44724;52.332;4.978;2022-11-20T13:36:00;100835.59;;;1.63;100.00
58947;BME280;44724;52.332;4.978;2022-11-20T13:38:27;100830.75;;;1.65;100.00
58947;BME280;44724;52.332;4.978;2022-11-20T13:40:56;100823.16;;;1.67;100.00
58947;BME280;44724;52.332;4.978;2022-11-20T13:43:40;100812.25;;;1.67;100.00
58947;BME280;44724;52.332;4.978;2022-11-20T13:46:08;100807.03;;;1.66;100.00
58947;BME280;44724;52.332;4.978;2022-11-20T13:48:44;100801.81;;;1.64;100.00
58947;BME280;44724;52.332;4.978;2022-11-20T13:51:32;100808.22;;;1.70;100.00
58947;BME280;44724;52.332;4.978;2022-11-20T14:02:16;100780.72;;;1.71;100.00
58947;BME280;44724;52.332;4.978;2022-11-20T14:04:48;100769.59;;;1.73;100.00